createdAt,value
2023-03-21T00:01:42.244Z,-23442.78
2023-03-21T00:03:46.750Z,-23445.66
2023-03-21T00:05:51.855Z,-23445.00
2023-03-21T00:07:54.682Z,-23444.84
2023-03-21T00:10:08.620Z,-23445.31
2023-03-21T00:12:17.229Z,-23445.31
2023-03-21T00:14:20.217Z,-23444.53
2023-03-21T00:16:29.836Z,-23445.00
2023-03-21T00:18:36.655Z,-23443.09
2023-03-21T00:20:40.624Z,-23443.09
2023-03-21T00:22:43.761Z,-23440.88
2023-03-21T00:24:46.512Z,-23441.03
2023-03-21T00:26:49.157Z,-23441.69
2023-03-21T00:28:52.059Z,-23444.69
2023-03-21T00:30:58.837Z,-23444.84
2023-03-21T00:33:05.869Z,-23445.81
2023-03-21T00:35:51.597Z,-23445.47
2023-03-21T00:37:39.205Z,-23446.28
2023-03-21T00:39:41.885Z,-23444.69
2023-03-21T00:41:44.634Z,-23446.91
2023-03-21T00:43:47.302Z,-23444.84
2023-03-21T00:45:51.157Z,-23445.31
2023-03-21T00:47:53.852Z,-23445.47
2023-03-21T00:49:57.244Z,-23446.44
2023-03-21T00:52:14.644Z,-23445.97
2023-03-21T00:54:19.949Z,-23446.28
2023-03-21T00:56:23.253Z,-23448.50
2023-03-21T00:58:26.156Z,-23446.75
2023-03-21T01:00:28.886Z,-23446.28
2023-03-21T01:02:31.537Z,-23450.72
2023-03-21T01:04:35.395Z,-23449.13
2023-03-21T01:06:40.052Z,-23449.59
2023-03-21T01:08:52.284Z,-23448.19
2023-03-21T01:10:57.155Z,-23447.88
2023-03-21T01:13:00.229Z,-23447.72
2023-03-21T01:15:02.881Z,-23445.97
2023-03-21T01:17:06.554Z,-23445.97
2023-03-21T01:19:18.449Z,-23448.97
2023-03-21T01:21:27.699Z,-23450.72
2023-03-21T01:23:30.641Z,-23452.31
2023-03-21T01:25:33.283Z,-23451.34
2023-03-21T01:27:37.260Z,-23443.09
2023-03-21T01:29:39.877Z,-23438.34
2023-03-21T01:31:42.565Z,-23438.81
2023-03-21T01:33:46.033Z,-23443.41
2023-03-21T01:35:55.197Z,-23442.47
2023-03-21T01:38:02.871Z,-23440.25
2023-03-21T01:40:07.052Z,-23440.56
2023-03-21T01:42:13.693Z,-23442.31
2023-03-21T01:44:19.098Z,-23442.31
2023-03-21T01:46:51.453Z,-23444.06
2023-03-21T01:49:03.391Z,-23444.22
2023-03-21T01:51:07.283Z,-23444.69
2023-03-21T01:53:10.110Z,-23445.00
2023-03-21T01:55:14.795Z,-23445.66
2023-03-21T01:57:25.861Z,-23445.66
2023-03-21T01:59:37.778Z,-23447.06
2023-03-21T02:01:42.276Z,-23445.66
2023-03-21T02:03:51.297Z,-23445.81
2023-03-21T02:06:00.248Z,-23445.47
2023-03-21T02:08:02.950Z,-23444.38
2023-03-21T02:10:09.860Z,-23444.06
2023-03-21T02:12:12.692Z,-23443.75
2023-03-21T02:14:26.759Z,-23442.00
2023-03-21T02:16:43.194Z,-23444.69
2023-03-21T02:18:56.590Z,-23443.75
2023-03-21T02:21:26.827Z,-23442.47
2023-03-21T02:24:06.250Z,-23440.56
2023-03-21T02:26:42.063Z,-23437.22
2023-03-21T02:28:50.313Z,-23435.16
2023-03-21T02:31:29.504Z,-23436.91
2023-03-21T02:34:07.687Z,-23434.84
2023-03-21T02:36:25.656Z,-23429.94
2023-03-21T02:38:38.353Z,-23429.13
2023-03-21T02:40:43.085Z,-23434.84
2023-03-21T02:43:01.392Z,-23432.00
2023-03-21T02:45:10.379Z,-23432.47
2023-03-21T02:47:16.667Z,-23429.13
2023-03-21T02:49:26.026Z,-23429.44
2023-03-21T02:51:32.017Z,-23430.72
2023-03-21T02:53:41.348Z,-23430.09
2023-03-21T02:55:45.619Z,-23427.22
2023-03-21T02:57:52.506Z,-23426.91
2023-03-21T03:00:02.375Z,-23426.91
2023-03-21T03:02:08.285Z,-23427.53
2023-03-21T03:04:22.387Z,-23427.22
2023-03-21T03:06:30.388Z,-23427.84
2023-03-21T03:08:56.303Z,-23429.63
2023-03-21T03:11:15.426Z,-23430.56
2023-03-21T03:13:33.248Z,-23430.72
2023-03-21T03:15:45.538Z,-23426.59
2023-03-21T03:17:53.551Z,-23425.97
2023-03-21T03:20:16.397Z,-23425.63
2023-03-21T03:22:26.505Z,-23425.16
2023-03-21T03:24:34.051Z,-23424.06
2023-03-21T03:26:40.756Z,-23425.47
2023-03-21T03:28:45.744Z,-23428.34
2023-03-21T03:31:05.495Z,-23430.41
2023-03-21T03:33:12.014Z,-23426.13
2023-03-21T03:35:17.426Z,-23427.53
2023-03-21T03:37:26.246Z,-23427.84
2023-03-21T03:39:36.651Z,-23431.34
2023-03-21T03:42:05.934Z,-23428.81
2023-03-21T03:44:07.297Z,-23432.00
2023-03-21T03:46:14.891Z,-23431.69
2023-03-21T03:48:26.156Z,-23430.25
2023-03-21T03:50:32.605Z,-23429.78
2023-03-21T03:52:50.009Z,-23431.03
2023-03-21T03:55:00.002Z,-23428.50
2023-03-21T03:57:03.466Z,-23429.78
2023-03-21T03:59:07.318Z,-23432.63
2023-03-21T04:01:10.909Z,-23432.00
2023-03-21T04:03:14.636Z,-23430.09
2023-03-21T04:05:21.207Z,-23427.38
2023-03-21T04:07:25.074Z,-23425.63
2023-03-21T04:09:42.627Z,-23428.50
2023-03-21T04:11:47.505Z,-23427.22
2023-03-21T04:13:50.409Z,-23425.16
2023-03-21T04:15:53.048Z,-23429.13
2023-03-21T04:17:55.799Z,-23425.78
2023-03-21T04:20:10.985Z,-23425.97
2023-03-21T04:22:17.047Z,-23425.63
2023-03-21T04:24:19.691Z,-23427.84
2023-03-21T04:26:22.346Z,-23428.03
2023-03-21T04:28:26.399Z,-23425.00
2023-03-21T04:30:29.070Z,-23424.06
2023-03-21T04:32:33.892Z,-23425.78
2023-03-21T04:34:40.194Z,-23421.50
2023-03-21T04:36:45.670Z,-23422.47
2023-03-21T04:38:48.565Z,-23422.78
2023-03-21T04:40:51.342Z,-23421.66
2023-03-21T04:42:53.968Z,-23421.34
2023-03-21T04:44:57.906Z,-23423.72
2023-03-21T04:47:00.533Z,-23422.31
2023-03-21T04:49:03.775Z,-23420.25
2023-03-21T04:51:06.945Z,-23415.16
2023-03-21T04:53:09.535Z,-23416.44
2023-03-21T04:55:12.118Z,-23415.63
2023-03-21T04:57:14.875Z,-23417.06
2023-03-21T04:59:17.728Z,-23415.78
2023-03-21T05:01:21.671Z,-23418.03
2023-03-21T05:03:24.320Z,-23415.31
2023-03-21T05:05:27.040Z,-23415.47
2023-03-21T05:07:32.645Z,-23418.34
2023-03-21T05:09:35.399Z,-23418.34
2023-03-21T05:11:40.259Z,-23417.06
2023-03-21T05:13:42.873Z,-23415.78
2023-03-21T05:15:45.511Z,-23415.78
2023-03-21T05:17:49.613Z,-23413.25
2023-03-21T05:19:53.231Z,-23410.72
2023-03-21T05:21:55.854Z,-23414.69
2023-03-21T05:23:58.506Z,-23415.47
2023-03-21T05:26:01.132Z,-23414.22
2023-03-21T05:28:03.767Z,-23413.25
2023-03-21T05:30:09.352Z,-23414.03
2023-03-21T05:32:12.033Z,-23409.59
2023-03-21T05:34:16.055Z,-23410.06
2023-03-21T05:36:18.819Z,-23410.41
2023-03-21T05:38:21.829Z,-23410.25
2023-03-21T05:40:24.514Z,-23409.44
2023-03-21T05:42:27.226Z,-23409.59
2023-03-21T05:44:29.795Z,-23407.84
2023-03-21T05:46:32.453Z,-23408.00
2023-03-21T05:48:35.900Z,-23407.53
2023-03-21T05:50:41.245Z,-23407.38
2023-03-21T05:52:43.898Z,-23407.22
2023-03-21T05:54:46.507Z,-23405.94
2023-03-21T05:56:49.182Z,-23412.47
2023-03-21T05:58:51.810Z,-23411.97
2023-03-21T06:00:54.424Z,-23412.31
2023-03-21T06:02:57.087Z,-23413.09
2023-03-21T06:04:59.779Z,-23410.88
2023-03-21T06:07:03.883Z,-23409.13
2023-03-21T06:09:07.322Z,-23407.38
2023-03-21T06:11:24.194Z,-23407.53
2023-03-21T06:13:26.868Z,-23410.06
2023-03-21T06:15:29.647Z,-23408.66
2023-03-21T06:17:32.396Z,-23408.81
2023-03-21T06:19:35.026Z,-23410.72
2023-03-21T06:21:37.762Z,-23409.44
2023-03-21T06:23:41.774Z,-23410.72
2023-03-21T06:25:44.348Z,-23412.94
2023-03-21T06:27:47.009Z,-23414.84
2023-03-21T06:29:49.866Z,-23413.25
2023-03-21T06:31:52.530Z,-23413.41
2023-03-21T06:33:55.216Z,-23412.94
2023-03-21T06:35:59.708Z,-23417.38
2023-03-21T06:38:02.473Z,-23420.88
2023-03-21T06:40:08.690Z,-23415.16
2023-03-21T06:42:11.553Z,-23418.50
2023-03-21T06:44:14.235Z,-23415.16
2023-03-21T06:46:16.908Z,-23418.97
2023-03-21T06:48:19.558Z,-23414.69
2023-03-21T06:50:22.208Z,-23416.09
2023-03-21T06:52:24.877Z,-23419.75
2023-03-21T06:54:27.597Z,-23418.34
2023-03-21T06:56:31.605Z,-23420.25
2023-03-21T06:58:34.484Z,-23425.78
2023-03-21T07:00:37.213Z,-23430.25
2023-03-21T07:02:39.914Z,-23424.38
2023-03-21T07:04:42.876Z,-23426.75
2023-03-21T07:06:45.517Z,-23427.22
2023-03-21T07:08:48.524Z,-23428.19
2023-03-21T07:10:51.211Z,-23436.59
2023-03-21T07:12:55.425Z,-23447.53
2023-03-21T07:14:58.262Z,-23462.31
2023-03-21T07:17:01.349Z,-23469.13
2023-03-21T07:19:04.366Z,-23455.31
2023-03-21T07:21:07.812Z,-23458.66
2023-03-21T07:23:10.766Z,-23470.69
2023-03-21T07:25:13.720Z,-23474.81
2023-03-21T07:27:16.870Z,-23478.94
2023-03-21T07:29:23.169Z,-23496.72
2023-03-21T07:31:26.884Z,-23502.41
2023-03-21T07:33:29.577Z,-23495.13
2023-03-21T07:35:32.393Z,-23505.56
2023-03-21T07:37:37.553Z,-23515.06
2023-03-21T07:39:40.791Z,-23520.31
2023-03-21T07:41:43.449Z,-23493.53
2023-03-21T07:43:46.095Z,-23481.00
2023-03-21T07:45:50.082Z,-23483.38
2023-03-21T07:47:52.835Z,-23497.19
2023-03-21T07:49:55.457Z,-23508.09
2023-03-21T07:51:59.614Z,-23524.09
2023-03-21T07:54:02.736Z,-23522.38
2023-03-21T07:56:06.272Z,-23527.44
2023-03-21T07:58:08.942Z,-23507.47
2023-03-21T08:00:13.654Z,-23537.25
2023-03-21T08:02:18.525Z,-23565.09
2023-03-21T08:04:21.242Z,-23540.09
2023-03-21T08:06:24.151Z,-23561.13
2023-03-21T08:08:26.765Z,-23564.13
2023-03-21T08:10:29.580Z,-23544.69
2023-03-21T08:12:32.254Z,-23556.53
2023-03-21T08:14:34.901Z,-23548.31
2023-03-21T08:16:37.665Z,-23551.00
2023-03-21T08:18:42.775Z,-23546.44
2023-03-21T08:20:45.600Z,-23546.25
2023-03-21T08:22:48.848Z,-23588.63
2023-03-21T08:24:51.460Z,-23634.91
2023-03-21T08:26:54.078Z,-23657.00
2023-03-21T08:28:56.669Z,-23667.88
2023-03-21T08:30:59.323Z,-23652.59
2023-03-21T08:33:02.417Z,-23694.34
2023-03-21T08:35:10.030Z,-23642.47
2023-03-21T08:37:12.746Z,-23674.34
2023-03-21T08:39:15.393Z,-23684.13
2023-03-21T08:41:19.252Z,-23689.47
2023-03-21T08:43:21.927Z,-23656.22
2023-03-21T08:45:25.403Z,-23641.84
2023-03-21T08:47:28.045Z,-23685.06
2023-03-21T08:49:30.897Z,-23673.09
2023-03-21T08:51:37.522Z,-23713.41
2023-03-21T08:53:41.515Z,-23725.38
2023-03-21T08:55:45.463Z,-23701.44
2023-03-21T08:57:48.583Z,-23673.72
2023-03-21T08:59:51.386Z,-23698.28
2023-03-21T09:01:54.141Z,-23692.00
2023-03-21T09:03:56.777Z,-23680.78
2023-03-21T09:06:00.676Z,-23664.88
2023-03-21T09:08:05.943Z,-23656.38
2023-03-21T09:10:25.890Z,-23673.72
2023-03-21T09:12:28.599Z,-23706.47
2023-03-21T09:14:31.355Z,-23697.81
2023-03-21T09:16:34.649Z,-23712.47
2023-03-21T09:18:48.722Z,-23775.19
2023-03-21T09:20:51.812Z,-23743.91
2023-03-21T09:22:54.782Z,-23757.44
2023-03-21T09:24:59.303Z,-23728.50
2023-03-21T09:27:02.044Z,-23752.41
2023-03-21T09:29:05.904Z,-23748.94
2023-03-21T09:31:11.316Z,-23773.47
2023-03-21T09:33:25.390Z,-23701.75
2023-03-21T09:35:28.514Z,-23672.44
2023-03-21T09:37:32.635Z,-23647.84
2023-03-21T09:39:35.552Z,-23604.28
2023-03-21T09:41:58.851Z,-23600.50
2023-03-21T09:44:12.699Z,-23617.53
2023-03-21T09:46:25.869Z,-23646.13
2023-03-21T09:48:46.898Z,-23681.59
2023-03-21T09:50:53.819Z,-23684.13
2023-03-21T09:52:58.427Z,-23765.31
2023-03-21T09:55:01.389Z,-23805.03
2023-03-21T09:57:15.954Z,-23763.88
2023-03-21T09:59:26.268Z,-23796.25
2023-03-21T10:01:33.025Z,-23787.28
2023-03-21T10:03:36.675Z,-23820.25
2023-03-21T10:05:45.832Z,-23797.50
2023-03-21T10:07:54.308Z,-23685.84
2023-03-21T10:09:58.708Z,-23709.00
2023-03-21T10:12:04.320Z,-23759.81
2023-03-21T10:14:17.862Z,-23765.94
2023-03-21T10:16:27.645Z,-23742.66
2023-03-21T10:18:31.979Z,-23757.28
2023-03-21T10:20:37.193Z,-23746.75
2023-03-21T10:22:40.261Z,-23730.88
2023-03-21T10:24:42.972Z,-23718.13
2023-03-21T10:26:47.646Z,-23702.38
2023-03-21T10:28:53.413Z,-23740.16
2023-03-21T10:30:59.831Z,-23771.91
2023-03-21T10:33:06.002Z,-23786.03
2023-03-21T10:35:14.260Z,-23735.13
2023-03-21T10:37:17.602Z,-23687.56
2023-03-21T10:39:28.163Z,-23695.16
2023-03-21T10:41:30.898Z,-23684.91
2023-03-21T10:43:37.714Z,-23644.06
2023-03-21T10:45:40.948Z,-23661.72
2023-03-21T10:47:49.897Z,-23646.91
2023-03-21T10:50:09.898Z,-23672.13
2023-03-21T10:52:16.480Z,-23685.22
2023-03-21T10:54:21.296Z,-23706.47
2023-03-21T10:56:27.664Z,-23672.75
2023-03-21T10:58:33.308Z,-23681.91
2023-03-21T11:00:41.187Z,-23692.31
2023-03-21T11:02:49.905Z,-23681.59
2023-03-21T11:04:54.346Z,-23660.16
2023-03-21T11:07:01.203Z,-23652.91
2023-03-21T11:09:09.616Z,-23646.44
2023-03-21T11:11:22.193Z,-23641.84
2023-03-21T11:13:27.094Z,-23663.31
2023-03-21T11:15:33.004Z,-23663.00
2023-03-21T11:17:36.672Z,-23671.19
2023-03-21T11:19:40.610Z,-23646.75
2023-03-21T11:21:44.243Z,-23663.00
2023-03-21T11:23:49.688Z,-23666.00
2023-03-21T11:25:52.958Z,-23683.16
2023-03-21T11:27:56.880Z,-23660.00
2023-03-21T11:30:02.791Z,-23672.75
2023-03-21T11:32:12.281Z,-23654.78
2023-03-21T11:34:27.377Z,-23662.69
2023-03-21T11:36:37.967Z,-23664.41
2023-03-21T11:38:41.138Z,-23665.03
2023-03-21T11:40:53.788Z,-23661.72
2023-03-21T11:42:58.063Z,-23665.81
2023-03-21T11:45:11.435Z,-23680.78
2023-03-21T11:47:14.185Z,-23667.72
2023-03-21T11:49:16.914Z,-23676.22
2023-03-21T11:51:28.029Z,-23672.13
2023-03-21T11:53:41.683Z,-23669.47
2023-03-21T11:56:01.977Z,-23665.03
2023-03-21T11:58:24.088Z,-23658.88
2023-03-21T12:00:32.923Z,-23665.34
2023-03-21T12:02:55.368Z,-23656.06
2023-03-21T12:05:05.104Z,-23655.09
2023-03-21T12:07:17.561Z,-23649.75
2023-03-21T12:09:30.497Z,-23655.41
2023-03-21T12:11:44.222Z,-23655.41
2023-03-21T12:13:56.227Z,-23642.00
2023-03-21T12:16:11.801Z,-23649.44
2023-03-21T12:18:30.385Z,-23653.06
2023-03-21T12:20:44.798Z,-23658.75
2023-03-21T12:23:02.339Z,-23645.66
2023-03-21T12:25:12.105Z,-23655.09
2023-03-21T12:27:24.949Z,-23642.47
2023-03-21T12:29:41.781Z,-23639.00
2023-03-21T12:31:53.520Z,-23657.16
2023-03-21T12:34:11.144Z,-23659.84
2023-03-21T12:36:28.764Z,-23657.00
2023-03-21T12:38:41.488Z,-23666.31
2023-03-21T12:40:59.519Z,-23666.47
2023-03-21T12:43:34.151Z,-23652.09
2023-03-21T12:45:47.054Z,-23668.97
2023-03-21T12:47:56.062Z,-23668.03
2023-03-21T12:50:02.675Z,-23664.56
2023-03-21T12:52:06.784Z,-23664.41
2023-03-21T12:54:17.442Z,-23667.09
2023-03-21T12:56:26.329Z,-23663.31
2023-03-21T12:58:32.183Z,-23666.94
2023-03-21T13:00:39.757Z,-23657.63
2023-03-21T13:02:45.821Z,-23659.06
2023-03-21T13:05:01.354Z,-23664.25
2023-03-21T13:07:09.584Z,-23671.81
2023-03-21T13:09:23.318Z,-23687.72
2023-03-21T13:11:33.218Z,-23669.63
2023-03-21T13:13:41.178Z,-23671.19
2023-03-21T13:15:53.781Z,-23674.66
2023-03-21T13:18:03.383Z,-23681.91
2023-03-21T13:20:19.160Z,-23678.75
2023-03-21T13:22:27.295Z,-23675.59
2023-03-21T13:24:39.408Z,-23681.44
2023-03-21T13:26:49.832Z,-23669.28
2023-03-21T13:28:53.316Z,-23672.91
2023-03-21T13:31:18.107Z,-23670.25
2023-03-21T13:33:25.885Z,-23675.91
2023-03-21T13:35:37.640Z,-23660.78
2023-03-21T13:37:42.999Z,-23659.22
2023-03-21T13:39:47.830Z,-23662.03
2023-03-21T13:41:53.188Z,-23668.03
2023-03-21T13:44:06.457Z,-23665.34
2023-03-21T13:46:11.283Z,-23671.50
2023-03-21T13:48:29.768Z,-23682.06
2023-03-21T13:50:50.661Z,-23674.50
2023-03-21T13:53:23.645Z,-23680.31
2023-03-21T13:55:30.651Z,-23667.88
2023-03-21T13:57:40.749Z,-23682.38
2023-03-21T13:59:45.605Z,-23690.72
2023-03-21T14:02:00.525Z,-23692.94
2023-03-21T14:04:16.032Z,-23684.75
2023-03-21T14:06:20.043Z,-23677.03
2023-03-21T14:08:36.524Z,-23687.41
2023-03-21T14:10:44.334Z,-23687.72
2023-03-21T14:12:49.427Z,-23685.69
2023-03-21T14:14:55.211Z,-23693.25
2023-03-21T14:16:58.952Z,-23694.81
2023-03-21T14:19:04.661Z,-23685.06
2023-03-21T14:21:09.389Z,-23686.63
2023-03-21T14:23:17.285Z,-23677.19
2023-03-21T14:25:21.877Z,-23677.81
2023-03-21T14:27:28.719Z,-23662.53
2023-03-21T14:29:35.265Z,-23659.53
2023-03-21T14:31:39.950Z,-23674.97
2023-03-21T14:33:46.641Z,-23670.72
2023-03-21T14:35:50.983Z,-23670.72
2023-03-21T14:37:53.681Z,-23671.97
2023-03-21T14:40:01.050Z,-23671.34
2023-03-21T14:42:06.529Z,-23674.66
2023-03-21T14:44:16.732Z,-23668.19
2023-03-21T14:46:22.042Z,-23668.34
2023-03-21T14:48:31.719Z,-23667.72
2023-03-21T14:50:39.711Z,-23668.97
2023-03-21T14:52:44.401Z,-23667.56
2023-03-21T14:54:48.865Z,-23661.09
2023-03-21T14:56:54.396Z,-23654.31
2023-03-21T14:58:57.478Z,-23632.69
2023-03-21T15:01:04.154Z,-23637.44
2023-03-21T15:03:08.479Z,-23637.75
2023-03-21T15:05:20.295Z,-23640.91
2023-03-21T15:07:28.733Z,-23641.84
2023-03-21T15:09:34.540Z,-23640.28
2023-03-21T15:11:39.076Z,-23639.19
2023-03-21T15:13:52.577Z,-23644.06
2023-03-21T15:15:55.586Z,-23649.25
2023-03-21T15:18:03.953Z,-23635.53
2023-03-21T15:20:11.716Z,-23637.75
2023-03-21T15:22:21.909Z,-23636.50
2023-03-21T15:24:29.433Z,-23634.28
2023-03-21T15:26:32.696Z,-23639.97
2023-03-21T15:28:36.309Z,-23643.13
2023-03-21T15:30:39.035Z,-23645.00
2023-03-21T15:32:41.721Z,-23642.66
2023-03-21T15:34:45.798Z,-23635.53
2023-03-21T15:36:56.137Z,-23636.03
2023-03-21T15:39:02.664Z,-23633.19
2023-03-21T15:41:15.553Z,-23640.44
2023-03-21T15:43:19.715Z,-23637.59
2023-03-21T15:45:25.551Z,-23633.50
2023-03-21T15:47:42.202Z,-23635.22
2023-03-21T15:49:44.941Z,-23630.50
2023-03-21T15:51:53.558Z,-23630.81
2023-03-21T15:53:56.417Z,-23624.19
2023-03-21T15:56:01.849Z,-23619.44
2023-03-21T15:58:09.780Z,-23621.66
2023-03-21T16:00:22.881Z,-23611.72
2023-03-21T16:02:30.676Z,-23608.06
2023-03-21T16:04:33.343Z,-23609.03
2023-03-21T16:06:38.498Z,-23606.81
2023-03-21T16:08:47.623Z,-23603.97
2023-03-21T16:10:50.452Z,-23599.69
2023-03-21T16:12:53.185Z,-23602.69
2023-03-21T16:14:56.442Z,-23596.69
2023-03-21T16:16:59.552Z,-23598.28
2023-03-21T16:19:03.168Z,-23597.81
2023-03-21T16:21:06.053Z,-23597.81
2023-03-21T16:23:10.883Z,-23596.06
2023-03-21T16:25:15.369Z,-23595.59
2023-03-21T16:27:19.827Z,-23600.97
2023-03-21T16:29:22.560Z,-23598.59
2023-03-21T16:31:27.038Z,-23597.81
2023-03-21T16:33:29.651Z,-23592.59
2023-03-21T16:35:32.303Z,-23591.00
2023-03-21T16:37:34.928Z,-23587.06
2023-03-21T16:39:37.673Z,-23591.66
2023-03-21T16:41:41.771Z,-23587.53
2023-03-21T16:43:46.157Z,-23586.13
2023-03-21T16:45:48.901Z,-23582.16
2023-03-21T16:47:52.063Z,-23586.13
2023-03-21T16:49:55.669Z,-23583.91
2023-03-21T16:51:58.349Z,-23584.38
2023-03-21T16:54:01.541Z,-23581.22
2023-03-21T16:56:05.252Z,-23579.47
2023-03-21T16:58:09.371Z,-23582.31
2023-03-21T17:00:16.666Z,-23579.94
2023-03-21T17:02:19.327Z,-23579.94
2023-03-21T17:04:22.462Z,-23580.09
2023-03-21T17:06:27.476Z,-23577.09
2023-03-21T17:08:30.540Z,-23577.41
2023-03-21T17:10:33.958Z,-23579.63
2023-03-21T17:12:37.368Z,-23579.31
2023-03-21T17:14:41.984Z,-23578.06
2023-03-21T17:16:45.763Z,-23578.22
2023-03-21T17:18:49.131Z,-23576.16
2023-03-21T17:20:51.860Z,-23573.31
2023-03-21T17:22:54.502Z,-23574.88
2023-03-21T17:24:57.102Z,-23577.25
2023-03-21T17:27:01.305Z,-23575.84
2023-03-21T17:29:04.980Z,-23574.41
2023-03-21T17:31:14.051Z,-23573.94
2023-03-21T17:33:16.758Z,-23571.88
2023-03-21T17:35:20.051Z,-23569.50
2023-03-21T17:37:25.955Z,-23575.22
2023-03-21T17:39:28.890Z,-23579.31
2023-03-21T17:41:31.554Z,-23574.09
2023-03-21T17:43:34.182Z,-23573.31
2023-03-21T17:45:36.841Z,-23565.88
2023-03-21T17:47:41.543Z,-23565.25
2023-03-21T17:49:44.215Z,-23570.31
2023-03-21T17:51:47.023Z,-23565.09
2023-03-21T17:53:51.839Z,-23564.28
2023-03-21T17:55:54.599Z,-23563.19
2023-03-21T17:57:57.440Z,-23564.78
2023-03-21T18:00:00.394Z,-23561.94
2023-03-21T18:02:03.013Z,-23559.56
2023-03-21T18:04:07.211Z,-23559.06
2023-03-21T18:06:16.029Z,-23560.97
2023-03-21T18:08:18.678Z,-23560.03
2023-03-21T18:10:24.741Z,-23558.44
2023-03-21T18:12:27.607Z,-23558.28
2023-03-21T18:14:30.776Z,-23557.34
2023-03-21T18:16:33.524Z,-23556.72
2023-03-21T18:18:36.264Z,-23558.75
2023-03-21T18:20:51.638Z,-23557.97
2023-03-21T18:22:55.408Z,-23559.06
2023-03-21T18:24:58.893Z,-23556.88
2023-03-21T18:27:02.671Z,-23559.72
2023-03-21T18:31:28.247Z,-23557.81
2023-03-21T18:33:30.967Z,-23557.97
2023-03-21T18:35:33.608Z,-23560.34
2023-03-21T18:37:37.614Z,-23557.19
2023-03-21T18:39:40.785Z,-23558.28
2023-03-21T18:41:43.817Z,-23557.50
2023-03-21T18:44:06.092Z,-23559.06
2023-03-21T18:46:09.447Z,-23559.72
2023-03-21T18:48:13.240Z,-23560.50
2023-03-21T18:50:16.413Z,-23568.56
2023-03-21T18:52:19.228Z,-23562.88
2023-03-21T18:54:24.027Z,-23560.81
2023-03-21T18:57:20.071Z,-23556.38
2023-03-21T18:58:49.300Z,-23559.72
2023-03-21T19:00:53.449Z,-23558.13
2023-03-21T19:03:13.882Z,-23556.88
2023-03-21T19:05:22.576Z,-23556.22
2023-03-21T19:07:25.295Z,-23552.44
2023-03-21T19:09:32.151Z,-23551.16
2023-03-21T19:11:34.921Z,-23550.84
2023-03-21T19:13:37.767Z,-23550.22
2023-03-21T19:15:41.423Z,-23552.75
2023-03-21T19:20:07.676Z,-23553.22
2023-03-21T19:22:10.579Z,-23554.34
2023-03-21T19:24:27.099Z,-23551.47
2023-03-21T19:26:32.041Z,-23549.75
2023-03-21T19:28:34.700Z,-23558.59
2023-03-21T19:30:37.712Z,-23556.53
2023-03-21T19:32:40.686Z,-23555.75
2023-03-21T19:34:43.358Z,-23555.91
2023-03-21T19:36:51.447Z,-23552.28
2023-03-21T19:38:54.894Z,-23548.00
2023-03-21T19:41:00.032Z,-23548.63
2023-03-21T19:43:21.692Z,-23546.44
2023-03-21T19:45:26.707Z,-23546.09
2023-03-21T19:47:29.335Z,-23548.63
2023-03-21T19:50:00.748Z,-23547.69
2023-03-21T19:51:54.900Z,-23548.31
2023-03-21T19:53:57.794Z,-23546.09
2023-03-21T19:56:03.696Z,-23549.28
2023-03-21T19:58:08.029Z,-23545.47
2023-03-21T20:00:11.728Z,-23544.53
2023-03-21T20:02:34.567Z,-23543.88
2023-03-21T20:04:37.073Z,-23543.88
2023-03-21T20:06:39.760Z,-23541.03
2023-03-21T20:09:13.576Z,-23540.41
2023-03-21T20:11:05.680Z,-23537.09
2023-03-21T20:13:09.662Z,-23537.25
2023-03-21T20:15:19.308Z,-23542.00
2023-03-21T20:17:23.648Z,-23538.34
2023-03-21T20:19:27.138Z,-23538.50
2023-03-21T20:21:36.570Z,-23539.47
2023-03-21T20:23:49.352Z,-23537.88
2023-03-21T20:25:52.048Z,-23538.03
2023-03-21T20:28:12.646Z,-23537.88
2023-03-21T20:30:20.017Z,-23536.59
2023-03-21T20:32:22.698Z,-23537.09
2023-03-21T20:34:25.489Z,-23535.97
2023-03-21T20:36:43.887Z,-23537.25
2023-03-21T20:38:46.992Z,-23535.34
2023-03-21T20:40:49.655Z,-23534.38
2023-03-21T20:42:52.633Z,-23534.06
2023-03-21T20:45:00.587Z,-23532.81
2023-03-21T20:47:06.322Z,-23534.38
2023-03-21T20:49:08.939Z,-23527.91
2023-03-21T20:53:36.545Z,-23528.84
2023-03-21T20:55:39.629Z,-23526.47
2023-03-21T20:57:42.745Z,-23529.00
2023-03-21T20:59:46.000Z,-23527.44
2023-03-21T21:01:48.816Z,-23526.94
2023-03-21T21:03:54.258Z,-23527.13
2023-03-21T21:05:56.917Z,-23530.13
2023-03-21T21:07:59.654Z,-23531.22
2023-03-21T21:10:02.269Z,-23530.13
2023-03-21T21:12:07.411Z,-23531.38
2023-03-21T21:14:10.708Z,-23530.13
2023-03-21T21:16:14.153Z,-23532.50
2023-03-21T21:18:16.829Z,-23531.22
2023-03-21T21:20:20.934Z,-23532.19
2023-03-21T21:22:23.573Z,-23529.97
2023-03-21T21:24:26.212Z,-23527.59
2023-03-21T21:26:29.046Z,-23529.66
2023-03-21T21:28:32.136Z,-23529.16
2023-03-21T21:30:38.398Z,-23529.66
2023-03-21T21:32:41.883Z,-23529.34
2023-03-21T21:34:44.741Z,-23530.28
2023-03-21T21:36:49.622Z,-23528.22
2023-03-21T21:38:52.975Z,-23526.47
2023-03-21T21:41:00.206Z,-23523.31
2023-03-21T21:43:03.744Z,-23523.31
2023-03-21T21:45:08.551Z,-23522.69
2023-03-21T21:47:11.241Z,-23521.56
2023-03-21T21:49:13.896Z,-23521.09
2023-03-21T21:51:18.001Z,-23523.78
2023-03-21T21:53:22.987Z,-23523.94
2023-03-21T21:55:25.704Z,-23525.53
2023-03-21T21:57:30.445Z,-23526.47
2023-03-21T21:59:33.932Z,-23525.84
2023-03-21T22:01:38.818Z,-23529.47
2023-03-21T22:03:42.247Z,-23530.59
2023-03-21T22:05:45.356Z,-23530.75
2023-03-21T22:07:48.183Z,-23529.00
2023-03-21T22:09:52.314Z,-23531.22
2023-03-21T22:11:56.614Z,-23529.00
2023-03-21T22:13:59.291Z,-23530.91
2023-03-21T22:16:02.057Z,-23528.84
2023-03-21T22:18:05.144Z,-23526.31
2023-03-21T22:20:09.830Z,-23525.53
2023-03-21T22:22:12.492Z,-23523.63
2023-03-21T22:24:15.167Z,-23527.13
2023-03-21T22:26:19.249Z,-23526.00
2023-03-21T22:28:25.525Z,-23527.75
2023-03-21T22:30:28.213Z,-23527.44
2023-03-21T22:32:31.110Z,-23530.44
2023-03-21T22:34:33.748Z,-23525.69
2023-03-21T22:36:36.389Z,-23524.56
2023-03-21T22:38:39.093Z,-23523.31
2023-03-21T22:40:42.216Z,-23525.22
2023-03-21T22:42:46.400Z,-23526.78
2023-03-21T22:44:49.070Z,-23531.22
2023-03-21T22:46:51.716Z,-23524.56
2023-03-21T22:48:54.382Z,-23525.06
2023-03-21T22:50:57.633Z,-23524.91
2023-03-21T22:53:00.317Z,-23524.91
2023-03-21T22:55:02.940Z,-23523.94
2023-03-21T22:57:06.344Z,-23523.94
2023-03-21T22:59:10.356Z,-23521.41
2023-03-21T23:01:13.047Z,-23520.94
2023-03-21T23:03:16.694Z,-23521.41
2023-03-21T23:05:19.792Z,-23523.00
2023-03-21T23:07:22.428Z,-23517.94
2023-03-21T23:09:25.590Z,-23514.44
2023-03-21T23:11:28.218Z,-23512.06
2023-03-21T23:13:31.498Z,-23511.75
2023-03-21T23:15:35.712Z,-23510.50
2023-03-21T23:17:39.225Z,-23509.22
2023-03-21T23:19:41.801Z,-23508.91
2023-03-21T23:21:44.794Z,-23507.94
2023-03-21T23:23:49.718Z,-23505.72
2023-03-21T23:25:52.702Z,-23502.09
2023-03-21T23:27:55.864Z,-23502.09
2023-03-21T23:29:58.531Z,-23498.28
2023-03-21T23:32:02.512Z,-23499.25
2023-03-21T23:34:06.057Z,-23496.06
2023-03-21T23:36:10.764Z,-23492.59
2023-03-21T23:38:13.401Z,-23492.59
2023-03-21T23:40:16.023Z,-23488.00
2023-03-21T23:42:18.873Z,-23486.56
2023-03-21T23:44:21.481Z,-23485.28
2023-03-21T23:46:24.115Z,-23482.75
2023-03-21T23:48:28.844Z,-23479.44
2023-03-21T23:50:31.430Z,-23479.59
2023-03-21T23:52:34.398Z,-23477.69
2023-03-21T23:54:37.278Z,-23476.09
2023-03-21T23:56:39.960Z,-23478.31
2023-03-21T23:58:42.619Z,-23480.69
